createdAt,value
2019-05-07T00:02:07.003Z,97981.23
2019-05-07T00:04:38.663Z,97960.77
2019-05-07T00:07:13.022Z,97963.92
2019-05-07T00:09:45.156Z,97984.59
2019-05-07T00:12:16.936Z,97974.89
2019-05-07T00:14:58.996Z,97973.55
2019-05-07T00:17:22.943Z,97981.33
2019-05-07T00:19:54.756Z,97961.33
2019-05-07T00:22:26.273Z,97975.27
2019-05-07T00:24:57.928Z,97979.03
2019-05-07T00:27:31.925Z,97963.54
2019-05-07T00:30:03.776Z,97983.17
2019-05-07T00:32:35.850Z,97990.42
2019-05-07T00:35:09.188Z,97980.72
2019-05-07T00:37:52.353Z,97992.79
2019-05-07T00:40:45.701Z,97985.22
2019-05-07T00:43:22.654Z,97976.19
2019-05-07T00:45:57.350Z,97986.23
2019-05-07T00:48:28.952Z,97983.69
2019-05-07T00:51:22.479Z,97987.60
2019-05-07T00:53:53.847Z,97971.01
2019-05-07T00:56:25.534Z,97973.83
2019-05-07T00:58:57.525Z,97983.39
2019-05-07T01:01:29.393Z,97988.13
2019-05-07T01:04:02.670Z,97976.41
2019-05-07T01:06:34.660Z,97967.19
2019-05-07T01:09:07.750Z,97968.28
2019-05-07T01:11:39.784Z,97981.19
2019-05-07T01:14:12.345Z,97991.30
2019-05-07T01:16:44.398Z,97979.43
2019-05-07T01:19:16.567Z,97975.47
2019-05-07T01:21:49.533Z,97975.85
2019-05-07T01:24:23.252Z,97988.69
2019-05-07T01:26:54.753Z,97988.03
2019-05-07T01:29:26.308Z,97997.52
2019-05-07T01:32:04.331Z,98014.49
2019-05-07T01:35:02.471Z,97995.52
2019-05-07T01:37:34.506Z,98006.56
2019-05-07T01:40:06.355Z,97998.94
2019-05-07T01:42:38.111Z,98011.42
2019-05-07T01:45:12.880Z,98002.45
2019-05-07T01:47:44.178Z,97998.73
2019-05-07T01:50:16.395Z,98013.91
2019-05-07T01:52:49.279Z,98007.83
2019-05-07T01:55:22.596Z,98007.83
2019-05-07T01:57:56.119Z,98011.80
2019-05-07T02:00:27.885Z,98015.69
2019-05-07T02:03:06.348Z,98004.52
2019-05-07T02:05:47.607Z,98006.54
2019-05-07T02:08:39.162Z,98022.00
2019-05-07T02:11:12.856Z,98004.16
2019-05-07T02:13:46.371Z,98003.39
2019-05-07T02:16:18.056Z,98015.04
2019-05-07T02:18:52.672Z,98003.53
2019-05-07T02:21:24.321Z,98011.52
2019-05-07T02:23:58.429Z,97994.56
2019-05-07T02:26:32.178Z,97994.88
2019-05-07T02:29:03.731Z,98004.08
2019-05-07T02:31:35.540Z,98006.91
2019-05-07T02:34:07.419Z,98009.22
2019-05-07T02:36:39.516Z,98014.47
2019-05-07T02:39:17.548Z,97994.11
2019-05-07T02:41:49.298Z,97994.11
2019-05-07T02:44:23.239Z,97986.88
2019-05-07T02:47:12.903Z,97992.34
2019-05-07T02:49:53.502Z,98006.02
2019-05-07T02:52:43.918Z,98005.71
2019-05-07T02:55:23.168Z,98006.02
2019-05-07T02:57:55.371Z,98004.82
2019-05-07T03:00:27.781Z,97998.55
2019-05-07T03:02:59.702Z,98006.17
2019-05-07T03:05:34.749Z,98011.34
2019-05-07T03:08:06.014Z,98015.38
2019-05-07T03:10:38.025Z,98019.03
2019-05-07T03:13:13.434Z,98009.82
2019-05-07T03:15:44.091Z,98015.79
2019-05-07T03:18:18.950Z,98024.17
2019-05-07T03:20:59.286Z,98017.06
2019-05-07T03:23:38.102Z,98011.22
2019-05-07T03:26:26.875Z,98012.95
2019-05-07T03:29:03.666Z,98004.89
2019-05-07T03:31:56.111Z,98026.03
2019-05-07T03:34:46.733Z,98023.06
2019-05-07T03:37:23.224Z,98028.95
2019-05-07T03:39:54.286Z,98021.34
2019-05-07T03:42:26.179Z,98018.33
2019-05-07T03:45:23.094Z,98048.67
2019-05-07T03:48:04.281Z,98048.44
2019-05-07T03:50:36.477Z,98030.16
2019-05-07T03:53:08.384Z,98042.47
2019-05-07T03:55:39.981Z,98028.27
2019-05-07T03:58:14.541Z,98043.88
2019-05-07T04:00:45.947Z,98043.81
2019-05-07T04:03:19.778Z,98047.84
2019-05-07T04:05:53.189Z,98053.22
2019-05-07T04:08:24.497Z,98058.30
2019-05-07T04:10:56.203Z,98047.84
2019-05-07T04:13:28.100Z,98055.70
2019-05-07T04:16:03.648Z,98060.98
2019-05-07T04:18:34.121Z,98061.52
2019-05-07T04:21:05.823Z,98059.24
2019-05-07T04:23:37.543Z,98083.09
2019-05-07T04:26:24.536Z,98059.26
2019-05-07T04:29:04.867Z,98073.54
2019-05-07T04:31:38.777Z,98069.19
2019-05-07T04:34:18.662Z,98073.75
2019-05-07T04:36:53.451Z,98070.84
2019-05-07T04:39:24.424Z,98070.09
2019-05-07T04:41:55.997Z,98083.03
2019-05-07T04:44:28.764Z,98075.78
2019-05-07T04:47:00.448Z,98066.05
2019-05-07T04:49:33.383Z,98065.69
2019-05-07T04:52:15.308Z,98068.00
2019-05-07T04:54:47.359Z,98071.52
2019-05-07T04:57:28.318Z,98078.63
2019-05-07T05:00:03.395Z,98073.84
2019-05-07T05:03:04.056Z,98079.09
2019-05-07T05:05:35.684Z,98091.86
2019-05-07T05:08:07.515Z,98085.20
2019-05-07T05:10:39.179Z,98093.59
2019-05-07T05:13:12.897Z,98091.88
2019-05-07T05:15:44.953Z,98088.73
2019-05-07T05:18:16.657Z,98098.88
2019-05-07T05:21:02.881Z,98101.43
2019-05-07T05:23:45.633Z,98100.02
2019-05-07T05:26:17.275Z,98095.35
2019-05-07T05:28:49.120Z,98095.80
2019-05-07T05:31:22.299Z,98096.64
2019-05-07T05:33:54.248Z,98101.74
2019-05-07T05:36:25.969Z,98104.44
2019-05-07T05:38:57.925Z,98104.95
2019-05-07T05:41:31.258Z,98104.20
2019-05-07T05:44:14.563Z,98084.62
2019-05-07T05:46:46.401Z,98102.56
2019-05-07T05:49:18.714Z,98102.70
2019-05-07T05:52:12.543Z,98117.38
2019-05-07T05:54:54.816Z,98114.00
2019-05-07T05:57:36.899Z,98122.08
2019-05-07T06:00:27.864Z,98111.64
2019-05-07T06:03:27.651Z,98128.23
2019-05-07T06:06:06.685Z,98115.55
2019-05-07T06:08:44.626Z,98122.70
2019-05-07T06:11:35.534Z,98118.92
2019-05-07T06:14:15.298Z,98128.20
2019-05-07T06:16:57.238Z,98124.36
2019-05-07T06:19:37.457Z,98121.02
2019-05-07T06:22:27.450Z,98122.26
2019-05-07T06:25:06.535Z,98123.09
2019-05-07T06:27:38.552Z,98121.19
2019-05-07T06:30:12.086Z,98101.89
2019-05-07T06:32:43.997Z,98116.83
2019-05-07T06:35:15.907Z,98112.64
2019-05-07T06:37:48.169Z,98109.55
2019-05-07T06:40:51.904Z,98098.80
2019-05-07T06:43:42.051Z,98124.38
2019-05-07T06:46:13.738Z,98121.13
2019-05-07T06:48:46.431Z,98137.94
2019-05-07T06:51:18.250Z,98121.56
2019-05-07T06:53:51.873Z,98131.68
2019-05-07T06:56:23.600Z,98113.98
2019-05-07T06:59:02.241Z,98098.97
2019-05-07T07:01:52.962Z,98143.73
2019-05-07T07:04:33.201Z,98099.25
2019-05-07T07:07:23.974Z,98118.69
2019-05-07T07:09:51.959Z,98139.66
2019-05-07T07:12:26.306Z,98149.66
2019-05-07T07:14:58.302Z,98123.94
2019-05-07T07:17:30.003Z,98104.55
2019-05-07T07:20:02.286Z,98150.17
2019-05-07T07:22:34.305Z,98128.99
2019-05-07T07:25:06.765Z,98108.17
2019-05-07T07:27:38.575Z,98107.68
2019-05-07T07:30:28.308Z,98130.47
2019-05-07T07:33:02.901Z,98134.98
2019-05-07T07:35:34.807Z,98128.95
2019-05-07T07:38:25.561Z,98148.76
2019-05-07T07:41:03.006Z,98135.02
2019-05-07T07:43:35.433Z,98146.09
2019-05-07T07:46:07.585Z,98160.44
2019-05-07T07:48:39.493Z,98145.70
2019-05-07T07:51:13.513Z,98159.39
2019-05-07T07:53:44.803Z,98162.70
2019-05-07T07:56:50.114Z,98153.72
2019-05-07T07:59:33.084Z,98158.03
2019-05-07T08:02:12.896Z,98144.41
2019-05-07T08:04:44.619Z,98177.88
2019-05-07T08:07:16.308Z,98152.17
2019-05-07T08:09:48.055Z,98151.85
2019-05-07T08:12:21.509Z,98165.88
2019-05-07T08:14:53.329Z,98126.96
2019-05-07T08:17:25.016Z,98143.92
2019-05-07T08:19:56.810Z,98128.81
2019-05-07T08:22:28.784Z,98153.40
2019-05-07T08:25:01.931Z,98143.44
2019-05-07T08:27:33.819Z,98118.70
2019-05-07T08:30:07.047Z,98141.52
2019-05-07T08:32:56.683Z,98139.19
2019-05-07T08:35:47.669Z,98155.66
2019-05-07T08:38:21.810Z,98171.59
2019-05-07T08:40:52.992Z,98175.41
2019-05-07T08:43:25.026Z,98163.68
2019-05-07T08:46:22.337Z,98165.37
2019-05-07T08:48:55.203Z,98163.17
2019-05-07T08:51:26.942Z,98178.03
2019-05-07T08:54:07.586Z,98175.18
2019-05-07T08:56:39.738Z,98155.41
2019-05-07T08:59:12.391Z,98158.03
2019-05-07T09:01:44.343Z,98167.88
2019-05-07T09:04:15.892Z,98151.56
2019-05-07T09:06:49.041Z,98149.55
2019-05-07T09:09:22.184Z,98141.22
2019-05-07T09:11:54.080Z,98176.09
2019-05-07T09:14:26.327Z,98173.45
2019-05-07T09:16:58.106Z,98169.97
2019-05-07T09:19:32.214Z,98153.75
2019-05-07T09:22:06.284Z,98125.23
2019-05-07T09:24:38.169Z,98179.61
2019-05-07T09:27:30.057Z,98186.52
2019-05-07T09:30:19.448Z,98173.47
2019-05-07T09:33:14.766Z,98169.08
2019-05-07T09:35:52.839Z,98163.27
2019-05-07T09:38:24.989Z,98155.52
2019-05-07T09:40:57.210Z,98162.50
2019-05-07T09:43:28.835Z,98169.14
2019-05-07T09:46:02.708Z,98166.04
2019-05-07T09:48:34.336Z,98157.34
2019-05-07T09:51:06.102Z,98154.20
2019-05-07T09:53:37.960Z,98153.81
2019-05-07T09:56:12.254Z,98165.69
2019-05-07T09:58:43.699Z,98209.30
2019-05-07T10:01:18.175Z,98164.16
2019-05-07T10:03:51.851Z,98179.79
2019-05-07T10:06:23.693Z,98164.66
2019-05-07T10:08:55.420Z,98181.11
2019-05-07T10:11:33.717Z,98158.41
2019-05-07T10:14:09.246Z,98164.75
2019-05-07T10:16:47.783Z,98166.60
2019-05-07T10:19:22.104Z,98168.12
2019-05-07T10:21:53.588Z,98185.70
2019-05-07T10:24:25.484Z,98178.20
2019-05-07T10:26:57.118Z,98168.68
2019-05-07T10:29:29.255Z,98162.80
2019-05-07T10:32:02.214Z,98130.42
2019-05-07T10:34:34.166Z,98150.28
2019-05-07T10:37:06.289Z,98152.44
2019-05-07T10:39:39.005Z,98149.25
2019-05-07T10:42:13.218Z,98153.21
2019-05-07T10:44:52.544Z,98141.71
2019-05-07T10:47:49.060Z,98146.88
2019-05-07T10:50:35.343Z,98168.16
2019-05-07T10:52:59.138Z,98168.17
2019-05-07T10:55:32.702Z,98148.34
2019-05-07T10:58:04.289Z,98126.27
2019-05-07T11:00:36.908Z,98140.33
2019-05-07T11:03:08.714Z,98151.70
2019-05-07T11:05:41.864Z,98141.08
2019-05-07T11:08:13.676Z,98164.63
2019-05-07T11:10:46.596Z,98157.73
2019-05-07T11:13:18.417Z,98143.02
2019-05-07T11:15:52.969Z,98150.92
2019-05-07T11:18:43.637Z,98154.11
2019-05-07T11:21:17.701Z,98151.25
2019-05-07T11:23:52.101Z,98145.71
2019-05-07T11:26:23.446Z,98145.91
2019-05-07T11:28:55.412Z,98117.03
2019-05-07T11:31:27.536Z,98168.42
2019-05-07T11:33:59.823Z,98166.45
2019-05-07T11:36:34.367Z,98150.88
2019-05-07T11:39:07.709Z,98154.02
2019-05-07T11:41:57.075Z,98158.29
2019-05-07T11:44:32.094Z,98168.40
2019-05-07T11:47:28.692Z,98166.91
2019-05-07T11:50:32.977Z,98142.52
2019-05-07T11:53:07.150Z,98177.17
2019-05-07T11:55:38.883Z,98147.97
2019-05-07T11:58:12.855Z,98154.02
2019-05-07T12:01:04.817Z,98151.55
2019-05-07T12:03:36.907Z,98180.39
2019-05-07T12:06:08.733Z,98170.77
2019-05-07T12:08:48.078Z,98153.20
2019-05-07T12:11:15.046Z,98159.38
2019-05-07T12:13:46.568Z,98157.83
2019-05-07T12:16:19.527Z,98159.89
2019-05-07T12:18:52.450Z,98154.94
2019-05-07T12:21:25.058Z,98158.88
2019-05-07T12:23:56.687Z,98171.47
2019-05-07T12:26:28.788Z,98172.37
2019-05-07T12:29:00.574Z,98159.94
2019-05-07T12:31:47.234Z,98155.80
2019-05-07T12:34:23.348Z,98164.71
2019-05-07T12:36:55.233Z,98155.72
2019-05-07T12:39:27.099Z,98158.45
2019-05-07T12:41:59.007Z,98144.98
2019-05-07T12:44:33.725Z,98142.19
2019-05-07T12:47:06.295Z,98162.13
2019-05-07T12:49:37.829Z,98170.86
2019-05-07T12:52:22.646Z,98152.88
2019-05-07T12:55:12.887Z,98161.30
2019-05-07T12:57:44.773Z,98160.84
2019-05-07T13:00:34.943Z,98183.80
2019-05-07T13:03:21.816Z,98192.73
2019-05-07T13:05:54.586Z,98183.25
2019-05-07T13:08:26.363Z,98180.61
2019-05-07T13:10:57.973Z,98157.00
2019-05-07T13:13:31.835Z,98158.53
2019-05-07T13:16:04.043Z,98161.71
2019-05-07T13:18:35.734Z,98175.55
2019-05-07T13:21:07.349Z,98174.55
2019-05-07T13:23:39.033Z,98172.73
2019-05-07T13:26:10.533Z,98170.77
2019-05-07T13:28:44.348Z,98166.83
2019-05-07T13:31:17.662Z,98184.52
2019-05-07T13:33:52.411Z,98174.97
2019-05-07T13:36:25.403Z,98166.00
2019-05-07T13:39:23.347Z,98168.16
2019-05-07T13:42:04.703Z,98180.05
2019-05-07T13:44:52.584Z,98164.80
2019-05-07T13:47:29.893Z,98168.21
2019-05-07T13:50:02.769Z,98160.44
2019-05-07T13:52:35.191Z,98158.05
2019-05-07T13:55:08.331Z,98165.08
2019-05-07T13:57:41.961Z,98174.86
2019-05-07T14:00:21.901Z,98170.88
2019-05-07T14:02:55.528Z,98171.88
2019-05-07T14:05:29.406Z,98180.53
2019-05-07T14:08:04.337Z,98167.55
2019-05-07T14:10:35.135Z,98185.16
2019-05-07T14:13:12.757Z,98183.96
2019-05-07T14:15:42.982Z,98185.31
2019-05-07T14:18:14.750Z,98193.97
2019-05-07T14:20:46.302Z,98181.75
2019-05-07T14:23:17.862Z,98166.45
2019-05-07T14:25:49.638Z,98195.33
2019-05-07T14:28:23.563Z,98173.34
2019-05-07T14:30:56.298Z,98176.08
2019-05-07T14:33:53.924Z,98179.36
2019-05-07T14:36:32.074Z,98181.66
2019-05-07T14:39:06.613Z,98187.63
2019-05-07T14:41:38.629Z,98201.95
2019-05-07T14:44:13.445Z,98183.45
2019-05-07T14:46:51.526Z,98188.80
2019-05-07T14:59:13.873Z,98174.72
2019-05-07T15:01:45.869Z,98185.41
2019-05-07T15:04:18.401Z,98181.38
2019-05-07T15:06:51.948Z,98186.67
2019-05-07T15:09:24.277Z,98190.98
2019-05-07T15:11:56.535Z,98185.97
2019-05-07T15:14:28.247Z,98181.58
2019-05-07T15:17:07.147Z,98176.47
2019-05-07T15:19:38.787Z,98172.30
2019-05-07T15:22:45.416Z,98184.11
2019-05-07T15:25:07.094Z,98192.28
2019-05-07T15:27:39.003Z,98163.55
2019-05-07T15:30:11.805Z,98180.17
2019-05-07T15:32:43.739Z,98191.17
2019-05-07T15:35:17.076Z,98181.53
2019-05-07T15:37:49.336Z,98198.73
2019-05-07T15:40:22.543Z,98183.05
2019-05-07T15:42:54.675Z,98191.25
2019-05-07T15:45:26.491Z,98212.69
2019-05-07T15:47:58.771Z,98192.34
2019-05-07T15:50:32.202Z,98178.39
2019-05-07T15:53:25.458Z,98182.33
2019-05-07T15:55:57.324Z,98180.22
2019-05-07T15:58:29.057Z,98176.62
2019-05-07T16:01:02.200Z,98180.23
2019-05-07T16:03:37.810Z,98178.92
2019-05-07T16:06:09.401Z,98195.08
2019-05-07T16:08:49.089Z,98180.00
2019-05-07T16:11:19.972Z,98185.82
2019-05-07T16:14:09.206Z,98178.64
2019-05-07T16:16:44.306Z,98181.16
2019-05-07T16:19:27.063Z,98187.42
2019-05-07T16:22:03.805Z,98188.80
2019-05-07T16:24:36.063Z,98202.55
2019-05-07T16:27:08.215Z,98187.57
2019-05-07T16:29:41.930Z,98192.93
2019-05-07T16:32:13.790Z,98193.35
2019-05-07T16:34:45.779Z,98190.74
2019-05-07T16:37:17.626Z,98190.26
2019-05-07T16:39:49.708Z,98193.51
2019-05-07T16:42:22.161Z,98200.13
2019-05-07T16:44:53.919Z,98200.56
2019-05-07T16:47:26.043Z,98201.57
2019-05-07T16:49:57.724Z,98204.05
2019-05-07T16:52:29.594Z,98197.66
2019-05-07T16:55:02.971Z,98203.47
2019-05-07T16:57:54.402Z,98191.93
2019-05-07T17:00:39.421Z,98202.09
2019-05-07T17:03:16.602Z,98208.66
2019-05-07T17:05:48.447Z,98203.14
2019-05-07T17:08:39.926Z,98207.38
2019-05-07T17:11:12.124Z,98213.09
2019-05-07T17:13:43.878Z,98218.66
2019-05-07T17:16:15.762Z,98220.97
2019-05-07T17:18:47.676Z,98230.17
2019-05-07T17:21:21.620Z,98217.14
2019-05-07T17:23:52.935Z,98210.33
2019-05-07T17:26:24.532Z,98213.59
2019-05-07T17:28:56.361Z,98215.33
2019-05-07T17:31:28.808Z,98220.44
2019-05-07T17:34:02.286Z,98217.48
2019-05-07T17:36:34.511Z,98213.07
2019-05-07T17:39:09.311Z,98217.41
2019-05-07T17:41:42.885Z,98225.44
2019-05-07T17:44:15.195Z,98221.45
2019-05-07T17:46:46.873Z,98224.52
2019-05-07T17:49:18.873Z,98221.45
2019-05-07T17:51:52.586Z,98226.59
2019-05-07T17:54:24.572Z,98225.84
2019-05-07T17:56:56.180Z,98233.33
2019-05-07T17:59:29.214Z,98234.90
2019-05-07T18:02:29.665Z,98238.83
2019-05-07T18:05:02.950Z,98245.70
2019-05-07T18:07:36.918Z,98242.89
2019-05-07T18:10:09.820Z,98247.26
2019-05-07T18:12:42.559Z,98250.30
2019-05-07T18:15:14.477Z,98253.23
2019-05-07T18:18:03.010Z,98254.33
2019-05-07T18:20:35.577Z,98251.23
2019-05-07T18:23:10.256Z,98254.95
2019-05-07T18:25:42.693Z,98257.88
2019-05-07T18:28:16.238Z,98268.86
2019-05-07T18:30:49.122Z,98267.07
2019-05-07T18:33:29.098Z,98261.66
2019-05-07T18:36:02.677Z,98271.83
2019-05-07T18:38:34.560Z,98270.70
2019-05-07T18:41:06.565Z,98274.97
2019-05-07T18:43:38.279Z,98273.02
2019-05-07T18:46:10.083Z,98272.92
2019-05-07T18:48:42.633Z,98277.14
2019-05-07T18:51:14.570Z,98285.26
2019-05-07T18:53:46.544Z,98287.27
2019-05-07T18:56:19.222Z,98287.22
2019-05-07T18:58:52.091Z,98282.08
2019-05-07T19:01:25.912Z,98271.42
2019-05-07T19:03:58.279Z,98281.52
2019-05-07T19:06:31.793Z,98284.86
2019-05-07T19:09:05.616Z,98283.80
2019-05-07T19:11:39.376Z,98283.80
2019-05-07T19:14:13.212Z,98289.06
2019-05-07T19:16:44.568Z,98295.26
2019-05-07T19:19:17.595Z,98290.06
2019-05-07T19:21:49.665Z,98292.60
2019-05-07T19:24:25.666Z,98292.25
2019-05-07T19:26:55.588Z,98296.26
2019-05-07T19:29:27.701Z,98297.08
2019-05-07T19:31:59.527Z,98300.48
2019-05-07T19:34:32.492Z,98297.20
2019-05-07T19:37:05.115Z,98299.08
2019-05-07T19:39:36.915Z,98302.09
2019-05-07T19:42:08.969Z,98305.95
2019-05-07T19:44:43.172Z,98293.11
2019-05-07T19:47:15.096Z,98298.73
2019-05-07T19:49:47.182Z,98296.50
2019-05-07T19:52:19.326Z,98298.63
2019-05-07T19:55:01.232Z,98299.92
2019-05-07T19:57:29.556Z,98302.21
2019-05-07T20:00:01.290Z,98306.73
2019-05-07T20:02:39.651Z,98300.22
2019-05-07T20:05:12.109Z,98296.33
2019-05-07T20:07:44.348Z,98306.10
2019-05-07T20:10:20.490Z,98300.55
2019-05-07T20:12:52.447Z,98297.28
2019-05-07T20:15:24.251Z,98298.00
2019-05-07T20:17:56.360Z,98297.16
2019-05-07T20:20:27.956Z,98296.98
2019-05-07T20:22:59.839Z,98298.19
2019-05-07T20:25:33.232Z,98301.02
2019-05-07T20:28:05.603Z,98294.69
2019-05-07T20:30:37.472Z,98294.48
2019-05-07T20:33:09.532Z,98291.23
2019-05-07T20:35:43.765Z,98290.64
2019-05-07T20:38:16.596Z,98293.66
2019-05-07T20:40:48.658Z,98297.70
2019-05-07T20:43:23.088Z,98308.26
2019-05-07T20:45:54.997Z,98300.68
2019-05-07T20:48:26.768Z,98311.14
2019-05-07T20:50:59.334Z,98306.33
2019-05-07T20:54:02.310Z,98309.42
2019-05-07T20:56:35.730Z,98308.16
2019-05-07T20:59:08.313Z,98310.55
2019-05-07T21:01:42.001Z,98319.72
2019-05-07T21:04:13.488Z,98317.61
2019-05-07T21:06:45.459Z,98315.89
2019-05-07T21:09:18.267Z,98316.73
2019-05-07T21:11:50.174Z,98322.96
2019-05-07T21:14:22.818Z,98325.01
2019-05-07T21:16:54.896Z,98321.87
2019-05-07T21:19:26.536Z,98320.97
2019-05-07T21:21:58.589Z,98324.63
2019-05-07T21:24:30.365Z,98323.20
2019-05-07T21:27:03.837Z,98323.79
2019-05-07T21:29:35.768Z,98317.05
2019-05-07T21:32:07.726Z,98322.38
2019-05-07T21:34:39.414Z,98318.54
2019-05-07T21:37:12.588Z,98319.09
2019-05-07T21:39:44.511Z,98331.31
2019-05-07T21:42:16.019Z,98321.63
2019-05-07T21:44:49.271Z,98327.93
2019-05-07T21:47:22.178Z,98328.55
2019-05-07T21:49:55.267Z,98333.88
2019-05-07T21:52:29.828Z,98335.12
2019-05-07T21:55:12.779Z,98330.50
2019-05-07T21:58:02.411Z,98331.78
2019-05-07T22:00:46.284Z,98336.72
2019-05-07T22:03:19.581Z,98338.00
2019-05-07T22:05:52.005Z,98334.53
2019-05-07T22:08:23.794Z,98332.20
2019-05-07T22:10:55.855Z,98330.68
2019-05-07T22:13:28.968Z,98340.44
2019-05-07T22:16:02.544Z,98331.69
2019-05-07T22:18:34.102Z,98328.62
2019-05-07T22:21:05.779Z,98337.83
2019-05-07T22:23:37.399Z,98330.11
2019-05-07T22:26:20.018Z,98331.52
2019-05-07T22:28:45.856Z,98332.20
2019-05-07T22:31:36.798Z,98330.63
2019-05-07T22:34:15.490Z,98334.77
2019-05-07T22:36:48.362Z,98333.49
2019-05-07T22:39:32.758Z,98330.75
2019-05-07T22:42:06.157Z,98323.16
2019-05-07T22:44:37.863Z,98335.09
2019-05-07T22:47:22.898Z,98330.34
2019-05-07T22:49:56.728Z,98326.66
2019-05-07T22:52:28.729Z,98332.13
2019-05-07T22:55:00.482Z,98334.00
2019-05-07T22:57:52.618Z,98334.83
2019-05-07T23:00:47.631Z,98336.11
2019-05-07T23:03:20.132Z,98334.50
2019-05-07T23:05:53.579Z,98333.04
2019-05-07T23:08:25.286Z,98323.88
2019-05-07T23:10:56.946Z,98325.93
2019-05-07T23:13:28.954Z,98323.76
2019-05-07T23:16:02.647Z,98322.80
2019-05-07T23:18:35.075Z,98323.34
2019-05-07T23:21:07.073Z,98323.11
2019-05-07T23:23:38.781Z,98324.83
2019-05-07T23:26:12.189Z,98320.65
2019-05-07T23:28:44.072Z,98310.97
2019-05-07T23:31:15.830Z,98319.16
2019-05-07T23:33:47.962Z,98323.95
2019-05-07T23:36:21.815Z,98318.98
2019-05-07T23:38:53.013Z,98309.63
2019-05-07T23:41:37.173Z,98311.72
2019-05-07T23:44:28.005Z,98318.82
2019-05-07T23:46:59.754Z,98319.63
2019-05-07T23:49:32.229Z,98321.95
2019-05-07T23:52:04.144Z,98328.25
2019-05-07T23:54:36.280Z,98330.66
2019-05-07T23:57:09.821Z,98329.98
2019-05-07T23:59:42.168Z,98328.11
